Portada
METAR-TAF:

METAR-TAF

Aeroports :

Hyderabad, Índia

latitud: 17-14-00N, longitud: 078-26-00E, altitud: 617 m

Observació

L'informe es va fer fa 17 minuts, a les 13:30 UTC
Vent 5 kt del Est/Sud-Est
Temperatura 24°C
Humitat 78%
Pressió 1014 hPa
Visibilitat: 5000 m
Escasses núvols a una alçada de 2000 ft
calitja

METAR: VOHS 151330Z 11005KT 5000 HZ FEW020 24/20 Q1014 NOSIG

Hora: 19:17 (13:47 UTC)

Pronòstic

L'informe es va fer fa 2 hores i 47 minuts, a les 11:00 UTC
Pronòstic vàlid del 15 a les 12 UTC al 15 a les 21 UTC
Vent 6 kt del Est/Nord-Est
Visibilitat: 6000 m
Escasses núvols a una alçada de 1500 ft
Temporalment
l' 15 a les 15 UTC al 15 a les 21 UTC
Vent 4 kt del Sud-Est
Visibilitat: 5000 m
boirina

TAF: VOHS 151100Z 1512/1521 06006KT 6000 FEW015 TEMPO 1515/1521 13004KT 5000 BR NSC

Observacions i pronòstics meteorològics de més de 4000 aeroports (METAR i TAF).

Les estacions disponibles són els punts grocs i vermells al mapa.

Posi el ratolí al punt desitjat per veure el nom de l'estació.

Feu clic per veure les observacions i els pronòstics meteorològics.

Per canviar el mapa: feu clic els botons verds amb una creu de color negre per apropar; al botó verd amb un guió per allunyar la imatge; o en les fletxes verdes per a mapes adjacents.


METAR-TAF: